EmailTwitter


Observations de surface / Royaume-Uni / EGLL (03772)

Régions: Québec | Canada | États-Unis | Europe | France | UK | Ailleurs
Station
Affichage
Infos & localisation pour EGLL (03772) | Aide pour décoder les METARs

Observations prises le 2018-11-12 à 17H50 UTC à LONDON/HEATHROW, UK (EGLL)

Température: 11.0 Celsius

Point de rosée: 8.0 Celsius

Humidité relative: 82%

Facteur vent: 9.

Vents: Sud à 19 km/h ou 10 noeuds.

Pression au niveau moyen de la mer: 101.10 kilopascals.

Visibilité horizontale: 6.21 milles terrestres ou 9.94 kilomètres.

Observation METAR:

EGLL 121750Z AUTO 19010KT 170V240 9999 //////CB 11/08 Q1011 TEMPO SHRA=